createdAt,value
2022-12-03T00:01:54.104Z,67.17
2022-12-03T00:04:23.613Z,61.90
2022-12-03T00:06:53.133Z,66.72
2022-12-03T00:09:22.643Z,62.98
2022-12-03T00:11:52.077Z,61.65
2022-12-03T00:14:21.539Z,67.22
2022-12-03T00:16:50.967Z,62.88
2022-12-03T00:19:27.173Z,62.33
2022-12-03T00:21:57.624Z,66.40
2022-12-03T00:24:27.084Z,66.15
2022-12-03T00:26:56.724Z,66.35
2022-12-03T00:29:26.228Z,66.65
2022-12-03T00:31:55.666Z,68.97
2022-12-03T00:34:25.105Z,67.35
2022-12-03T00:36:54.544Z,68.15
2022-12-03T00:39:25.543Z,70.22
2022-12-03T00:41:54.965Z,71.57
2022-12-03T00:44:24.411Z,79.72
2022-12-03T00:46:53.953Z,73.72
2022-12-03T00:49:23.526Z,77.37
2022-12-03T00:51:52.937Z,67.95
2022-12-03T00:54:26.828Z,73.83
2022-12-03T00:56:53.687Z,73.33
2022-12-03T00:59:23.328Z,73.87
2022-12-03T01:01:52.939Z,80.12
2022-12-03T01:04:23.715Z,81.25
2022-12-03T01:06:53.478Z,78.83
2022-12-03T01:09:23.014Z,79.35
2022-12-03T01:11:52.441Z,78.85
2022-12-03T01:14:22.794Z,76.75
2022-12-03T01:16:52.500Z,80.70
2022-12-03T01:19:22.401Z,76.50
2022-12-03T01:21:52.999Z,80.47
2022-12-03T01:24:23.471Z,69.95
2022-12-03T01:26:53.034Z,78.95
2022-12-03T01:29:23.293Z,78.78
2022-12-03T01:32:11.035Z,72.10
2022-12-03T01:34:40.463Z,76.65
2022-12-03T01:37:09.964Z,79.80
2022-12-03T01:39:39.525Z,80.62
2022-12-03T01:42:12.117Z,81.82
2022-12-03T01:44:43.306Z,74.12
2022-12-03T01:47:19.459Z,80.40
2022-12-03T01:49:51.974Z,79.65
2022-12-03T01:52:27.780Z,83.33
2022-12-03T01:55:00.179Z,78.00
2022-12-03T01:57:32.684Z,85.03
2022-12-03T02:00:04.075Z,80.85
2022-12-03T02:02:35.632Z,90.40
2022-12-03T02:05:26.608Z,86.30
2022-12-03T02:07:57.161Z,83.95
2022-12-03T02:10:29.713Z,84.07
2022-12-03T02:13:11.160Z,90.42
2022-12-03T02:15:41.525Z,78.65
2022-12-03T02:18:12.131Z,81.45
2022-12-03T02:20:53.283Z,92.53
2022-12-03T02:23:43.583Z,103.07
2022-12-03T02:26:13.638Z,109.85
2022-12-03T02:28:43.284Z,91.02
2022-12-03T02:31:12.763Z,93.40
2022-12-03T02:33:42.397Z,104.40
2022-12-03T02:36:13.462Z,96.25
2022-12-03T02:38:44.695Z,90.83
2022-12-03T02:41:18.846Z,94.72
2022-12-03T02:43:49.011Z,90.80
2022-12-03T02:46:18.544Z,85.92
2022-12-03T02:48:48.087Z,80.87
2022-12-03T02:51:18.851Z,84.47
2022-12-03T02:53:51.411Z,75.22
2022-12-03T02:58:54.022Z,101.95
2022-12-03T03:01:23.599Z,95.10
2022-12-03T03:03:54.067Z,82.25
2022-12-03T03:06:25.621Z,76.02
2022-12-03T03:08:55.257Z,78.97
2022-12-03T03:11:25.622Z,69.72
2022-12-03T03:13:55.183Z,70.03
2022-12-03T03:16:26.672Z,66.25
2022-12-03T03:18:57.091Z,68.02
2022-12-03T03:21:26.602Z,74.97
2022-12-03T03:25:43.760Z,74.07
2022-12-03T03:28:14.850Z,68.97
2022-12-03T03:30:46.550Z,73.25
2022-12-03T03:33:16.936Z,75.85
2022-12-03T03:35:48.872Z,78.57
2022-12-03T03:38:20.715Z,73.67
2022-12-03T03:40:51.983Z,77.73
2022-12-03T03:43:25.835Z,66.90
2022-12-03T03:45:56.551Z,64.82
2022-12-03T03:48:26.197Z,66.75
2022-12-03T03:50:55.796Z,62.00
2022-12-03T03:53:26.927Z,62.98
2022-12-03T03:55:56.485Z,61.45
2022-12-03T03:58:25.940Z,60.88
2022-12-03T04:00:55.457Z,64.77
2022-12-03T04:03:24.942Z,60.33
2022-12-03T04:08:23.125Z,59.63
2022-12-03T04:11:10.386Z,59.40
2022-12-03T04:13:39.824Z,58.92
2022-12-03T04:16:09.395Z,60.73
2022-12-03T04:18:44.610Z,58.65
2022-12-03T04:21:37.850Z,56.08
2022-12-03T04:24:09.461Z,64.72
2022-12-03T04:26:57.251Z,60.27
2022-12-03T04:29:26.688Z,59.48
2022-12-03T04:32:14.011Z,63.30
2022-12-03T04:35:01.665Z,60.40
2022-12-03T04:37:31.178Z,65.65
2022-12-03T04:42:29.173Z,59.98
2022-12-03T04:44:58.779Z,62.50
2022-12-03T04:47:28.269Z,64.67
2022-12-03T04:49:57.848Z,67.00
2022-12-03T04:52:27.301Z,66.62
2022-12-03T04:54:56.967Z,67.20
2022-12-03T04:57:26.483Z,73.50
2022-12-03T04:59:55.966Z,64.80
2022-12-03T05:04:55.196Z,68.28
2022-12-03T05:07:25.914Z,63.20
2022-12-03T05:09:55.403Z,60.30
2022-12-03T05:12:24.845Z,56.63
2022-12-03T05:14:54.565Z,56.05
2022-12-03T05:17:25.306Z,55.95
2022-12-03T05:20:12.326Z,61.65
2022-12-03T05:22:41.755Z,57.83
2022-12-03T05:25:11.695Z,55.20
2022-12-03T05:27:41.323Z,55.85
2022-12-03T05:30:11.721Z,53.20
2022-12-03T05:32:41.188Z,54.80
2022-12-03T05:35:11.755Z,49.70
2022-12-03T05:37:41.180Z,56.20
2022-12-03T05:40:12.686Z,54.93
2022-12-03T05:45:40.124Z,54.90
2022-12-03T05:48:12.876Z,59.80
2022-12-03T05:50:44.765Z,56.50
2022-12-03T05:53:18.696Z,53.10
2022-12-03T05:55:48.189Z,56.23
2022-12-03T05:58:17.622Z,64.00
2022-12-03T06:00:47.050Z,62.58
2022-12-03T06:03:16.695Z,60.23
2022-12-03T06:05:47.343Z,61.20
2022-12-03T06:08:16.905Z,58.78
2022-12-03T06:10:46.518Z,57.00
2022-12-03T06:13:16.012Z,59.35
2022-12-03T06:15:45.518Z,56.88
2022-12-03T06:18:16.651Z,58.60
2022-12-03T06:20:46.080Z,57.73
2022-12-03T06:23:15.515Z,62.40
2022-12-03T06:25:44.962Z,58.97
2022-12-03T06:28:14.459Z,61.00
2022-12-03T06:30:44.189Z,66.85
2022-12-03T06:33:13.721Z,55.63
2022-12-03T06:35:43.205Z,56.42
2022-12-03T06:38:14.367Z,63.58
2022-12-03T06:40:43.988Z,55.03
2022-12-03T06:43:13.425Z,56.77
2022-12-03T06:45:47.517Z,55.08
2022-12-03T06:48:14.014Z,50.90
2022-12-03T06:50:43.440Z,55.65
2022-12-03T06:53:12.869Z,57.30
2022-12-03T06:55:42.422Z,51.77
2022-12-03T06:58:11.856Z,49.80
2022-12-03T07:00:41.357Z,52.62
2022-12-03T07:03:10.885Z,50.00
2022-12-03T07:05:40.807Z,52.17
2022-12-03T07:08:10.439Z,51.05
2022-12-03T07:10:39.982Z,56.95
2022-12-03T07:13:09.423Z,50.65
2022-12-03T07:15:38.870Z,59.90
2022-12-03T07:18:08.482Z,53.95
2022-12-03T07:20:37.981Z,53.73
2022-12-03T07:23:07.437Z,51.53
2022-12-03T07:25:37.616Z,55.25
2022-12-03T07:28:07.058Z,53.60
2022-12-03T07:30:36.519Z,60.03
2022-12-03T07:33:06.013Z,58.95
2022-12-03T07:35:35.449Z,58.38
2022-12-03T07:38:04.917Z,58.45
2022-12-03T07:40:34.338Z,56.60
2022-12-03T07:43:03.787Z,53.38
2022-12-03T07:45:34.527Z,52.70
2022-12-03T07:48:04.028Z,59.48
2022-12-03T07:50:33.526Z,57.40
2022-12-03T07:53:02.969Z,52.90
2022-12-03T07:55:32.498Z,56.63
2022-12-03T07:58:01.927Z,64.30
2022-12-03T08:00:31.822Z,60.73
2022-12-03T08:03:01.330Z,57.70
2022-12-03T08:05:30.830Z,52.17
2022-12-03T08:08:01.791Z,53.07
2022-12-03T08:10:32.007Z,51.85
2022-12-03T08:13:03.642Z,55.17
2022-12-03T08:15:39.127Z,58.60
2022-12-03T08:18:17.872Z,68.30
2022-12-03T08:20:49.752Z,63.35
2022-12-03T08:23:22.398Z,66.83
2022-12-03T08:25:53.721Z,61.75
2022-12-03T08:28:29.602Z,62.40
2022-12-03T08:31:05.099Z,53.95
2022-12-03T08:33:36.887Z,58.02
2022-12-03T08:36:16.184Z,51.42
2022-12-03T08:38:57.341Z,49.48
2022-12-03T08:41:44.480Z,46.00
2022-12-03T08:44:29.841Z,52.08
2022-12-03T08:47:05.038Z,47.17
2022-12-03T08:49:34.480Z,42.20
2022-12-03T08:52:09.603Z,49.05
2022-12-03T08:54:39.200Z,42.80
2022-12-03T08:57:29.504Z,45.10
2022-12-03T09:00:04.211Z,41.80
2022-12-03T09:02:35.343Z,37.33
2022-12-03T09:05:14.620Z,37.27
2022-12-03T09:07:44.132Z,36.33
2022-12-03T09:10:13.669Z,34.03
2022-12-03T09:12:43.140Z,34.38
2022-12-03T09:15:12.749Z,34.30
2022-12-03T09:17:42.259Z,37.08
2022-12-03T09:20:13.331Z,34.60
2022-12-03T09:22:42.904Z,32.93
2022-12-03T09:25:12.465Z,31.70
2022-12-03T09:27:41.929Z,30.10
2022-12-03T09:30:11.701Z,31.80
2022-12-03T09:32:41.185Z,29.20
2022-12-03T09:35:11.398Z,26.07
2022-12-03T09:37:40.828Z,33.88
2022-12-03T09:40:12.051Z,26.90
2022-12-03T09:42:42.723Z,25.88
2022-12-03T09:45:14.775Z,29.90
2022-12-03T09:47:48.219Z,27.70
2022-12-03T09:50:26.343Z,28.70
2022-12-03T09:52:59.143Z,27.46
2022-12-03T09:55:29.648Z,25.70
2022-12-03T09:58:00.849Z,24.05
2022-12-03T10:00:31.538Z,25.75
2022-12-03T10:03:04.382Z,25.50
2022-12-03T10:05:35.628Z,26.52
2022-12-03T10:08:08.167Z,27.47
2022-12-03T10:10:40.664Z,27.17
2022-12-03T10:13:13.149Z,29.20
2022-12-03T10:15:42.698Z,32.17
2022-12-03T10:18:15.186Z,27.30
2022-12-03T10:20:44.679Z,34.58
2022-12-03T10:23:28.791Z,30.50
2022-12-03T10:26:01.865Z,30.40
2022-12-03T10:31:07.384Z,34.78
2022-12-03T10:33:41.802Z,34.30
2022-12-03T10:36:20.714Z,33.30
2022-12-03T10:39:09.480Z,31.00
2022-12-03T10:41:39.731Z,30.88
2022-12-03T10:44:26.007Z,26.13
2022-12-03T10:47:07.203Z,27.07
2022-12-03T10:49:37.660Z,28.02
2022-12-03T10:52:10.119Z,27.02
2022-12-03T10:54:39.643Z,25.40
2022-12-03T10:57:12.996Z,24.32
2022-12-03T10:59:43.567Z,23.85
2022-12-03T11:02:21.914Z,25.07
2022-12-03T11:04:53.264Z,32.65
2022-12-03T11:07:25.359Z,30.92
2022-12-03T11:09:55.458Z,25.25
2022-12-03T11:12:28.250Z,26.35
2022-12-03T11:15:02.220Z,27.42
2022-12-03T11:17:51.785Z,22.07
2022-12-03T11:20:33.279Z,27.52
2022-12-03T11:23:02.803Z,26.12
2022-12-03T11:25:37.974Z,21.87
2022-12-03T11:28:16.536Z,23.32
2022-12-03T11:30:56.529Z,24.02
2022-12-03T11:33:38.403Z,28.50
2022-12-03T11:36:10.739Z,26.77
2022-12-03T11:38:50.731Z,23.15
2022-12-03T11:41:20.876Z,22.70
2022-12-03T11:43:58.077Z,22.17
2022-12-03T11:46:30.618Z,23.65
2022-12-03T11:49:01.341Z,27.02
2022-12-03T11:51:31.800Z,29.45
2022-12-03T11:54:01.605Z,22.48
2022-12-03T11:56:32.782Z,26.35
2022-12-03T11:59:04.865Z,27.90
2022-12-03T12:01:42.786Z,25.32
2022-12-03T12:04:32.487Z,25.97
2022-12-03T12:07:02.833Z,25.55
2022-12-03T12:09:52.439Z,24.77
2022-12-03T12:12:30.398Z,39.18
2022-12-03T12:15:01.563Z,48.98
2022-12-03T12:17:38.043Z,29.82
2022-12-03T12:20:16.299Z,52.83
2022-12-03T12:22:45.721Z,61.85
2022-12-03T12:25:36.394Z,46.08
2022-12-03T12:28:05.955Z,29.02
2022-12-03T12:30:36.059Z,29.95
2022-12-03T12:33:14.347Z,22.10
2022-12-03T12:35:44.748Z,21.77
2022-12-03T12:38:19.963Z,20.20
2022-12-03T12:40:52.405Z,20.20
2022-12-03T12:43:27.514Z,19.62
2022-12-03T12:46:13.464Z,17.77
2022-12-03T12:48:34.275Z,18.82
2022-12-03T12:51:15.272Z,16.35
2022-12-03T12:53:44.688Z,17.42
2022-12-03T12:56:26.052Z,19.57
2022-12-03T12:58:57.121Z,19.40
2022-12-03T13:01:29.992Z,20.48
2022-12-03T13:03:59.883Z,17.90
2022-12-03T13:06:32.873Z,17.45
2022-12-03T13:09:02.373Z,18.00
2022-12-03T13:11:44.932Z,18.52
2022-12-03T13:14:26.334Z,17.95
2022-12-03T13:16:57.858Z,17.15
2022-12-03T13:19:39.594Z,17.37
2022-12-03T13:22:13.256Z,15.45
2022-12-03T13:24:48.304Z,15.48
2022-12-03T13:27:20.880Z,13.85
2022-12-03T13:29:59.509Z,16.73
2022-12-03T13:32:40.227Z,18.52
2022-12-03T13:35:12.753Z,14.10
2022-12-03T13:37:42.323Z,16.25
2022-12-03T13:40:30.771Z,48.30
2022-12-03T13:43:00.935Z,16.67
2022-12-03T13:45:33.551Z,16.80
2022-12-03T13:48:06.031Z,13.68
2022-12-03T13:50:38.719Z,15.78
2022-12-03T13:53:15.258Z,14.83
2022-12-03T13:55:47.989Z,17.65
2022-12-03T14:00:46.233Z,28.57
2022-12-03T14:03:18.707Z,27.17
2022-12-03T14:05:48.210Z,21.60
2022-12-03T14:08:18.188Z,24.37
2022-12-03T14:10:47.714Z,24.90
2022-12-03T14:13:17.211Z,38.02
2022-12-03T14:15:46.646Z,20.85
2022-12-03T14:18:16.149Z,21.48
2022-12-03T14:20:48.269Z,21.93
2022-12-03T14:23:17.778Z,22.80
2022-12-03T14:25:47.268Z,20.20
2022-12-03T14:28:16.703Z,23.83
2022-12-03T14:30:46.168Z,25.88
2022-12-03T14:33:15.601Z,21.93
2022-12-03T14:35:45.028Z,21.97
2022-12-03T14:38:16.309Z,22.20
2022-12-03T14:40:45.880Z,23.60
2022-12-03T14:43:15.453Z,22.90
2022-12-03T14:45:45.054Z,28.12
2022-12-03T14:48:14.479Z,23.57
2022-12-03T14:50:43.918Z,22.48
2022-12-03T14:53:13.359Z,27.37
2022-12-03T14:55:42.851Z,25.95
2022-12-03T14:58:12.291Z,25.85
2022-12-03T15:00:51.218Z,24.52
2022-12-03T15:03:22.559Z,26.25
2022-12-03T15:06:02.504Z,26.30
2022-12-03T15:08:34.005Z,28.23
2022-12-03T15:13:46.359Z,26.48
2022-12-03T15:16:15.899Z,30.05
2022-12-03T15:18:45.818Z,28.92
2022-12-03T15:21:15.329Z,29.30
2022-12-03T15:23:44.767Z,25.02
2022-12-03T15:26:14.262Z,24.43
2022-12-03T15:28:48.056Z,21.97
2022-12-03T15:31:14.894Z,30.08
2022-12-03T15:33:44.346Z,24.98
2022-12-03T15:36:13.855Z,25.95
2022-12-03T15:38:43.381Z,25.72
2022-12-03T15:41:23.472Z,27.73
2022-12-03T15:43:54.142Z,29.32
2022-12-03T15:46:24.991Z,27.80
2022-12-03T15:48:56.088Z,26.37
2022-12-03T15:51:27.160Z,25.85
2022-12-03T15:53:56.641Z,23.83
2022-12-03T15:56:26.174Z,25.72
2022-12-03T15:58:55.601Z,27.15
2022-12-03T16:01:25.747Z,30.30
2022-12-03T16:03:55.281Z,33.98
2022-12-03T16:06:24.730Z,33.80
2022-12-03T16:08:55.549Z,35.98
2022-12-03T16:11:25.053Z,32.13
2022-12-03T16:13:54.542Z,33.40
2022-12-03T16:16:24.045Z,34.83
2022-12-03T16:18:54.440Z,28.95
2022-12-03T16:21:27.229Z,31.17
2022-12-03T16:23:56.650Z,32.50
2022-12-03T16:26:26.124Z,30.27
2022-12-03T16:28:55.622Z,34.85
2022-12-03T16:31:25.470Z,33.85
2022-12-03T16:33:55.703Z,38.20
2022-12-03T16:36:25.124Z,36.93
2022-12-03T16:38:54.592Z,32.20
2022-12-03T16:41:24.812Z,41.88
2022-12-03T16:43:56.046Z,35.55
2022-12-03T16:46:28.240Z,37.75
2022-12-03T16:48:59.599Z,36.05
2022-12-03T16:51:31.433Z,33.05
2022-12-03T16:54:00.888Z,33.70
2022-12-03T16:56:30.381Z,37.00
2022-12-03T16:58:59.816Z,27.98
2022-12-03T17:01:30.999Z,34.75
2022-12-03T17:04:00.689Z,27.02
2022-12-03T17:06:30.503Z,27.15
2022-12-03T17:08:59.983Z,33.70
2022-12-03T17:11:33.794Z,31.35
2022-12-03T17:14:03.282Z,30.68
2022-12-03T17:16:32.758Z,31.90
2022-12-03T17:19:02.427Z,35.13
2022-12-03T17:21:34.839Z,33.98
2022-12-03T17:24:03.010Z,34.58
2022-12-03T17:26:32.577Z,36.65
2022-12-03T17:29:12.231Z,36.73
2022-12-03T17:31:42.735Z,36.03
2022-12-03T17:34:12.879Z,32.40
2022-12-03T17:36:42.373Z,35.43
2022-12-03T17:39:11.786Z,37.93
2022-12-03T17:41:41.225Z,34.15
2022-12-03T17:44:13.923Z,44.88
2022-12-03T17:46:41.826Z,35.00
2022-12-03T17:49:11.287Z,33.65
2022-12-03T17:51:40.730Z,32.48
2022-12-03T17:54:10.588Z,36.85
2022-12-03T17:56:41.707Z,37.65
2022-12-03T17:59:13.421Z,32.75
2022-12-03T18:01:45.446Z,37.63
2022-12-03T18:04:17.773Z,38.27
2022-12-03T18:06:47.448Z,35.45
2022-12-03T18:09:17.021Z,35.88
2022-12-03T18:11:46.668Z,37.75
2022-12-03T18:14:16.109Z,39.40
2022-12-03T18:16:45.550Z,34.03
2022-12-03T18:19:14.974Z,40.23
2022-12-03T18:21:44.528Z,37.58
2022-12-03T18:24:15.094Z,37.48
2022-12-03T18:26:44.527Z,38.45
2022-12-03T18:29:14.022Z,40.75
2022-12-03T18:31:43.615Z,40.38
2022-12-03T18:34:13.119Z,43.92
2022-12-03T18:36:43.051Z,39.25
2022-12-03T18:39:27.593Z,36.42
2022-12-03T18:41:58.428Z,39.63
2022-12-03T18:44:29.297Z,32.27
2022-12-03T18:47:02.941Z,30.80
2022-12-03T18:49:32.414Z,37.30
2022-12-03T18:52:01.863Z,33.20
2022-12-03T18:54:31.310Z,31.05
2022-12-03T18:57:00.820Z,34.13
2022-12-03T18:59:30.324Z,31.60
2022-12-03T19:02:01.315Z,32.98
2022-12-03T19:04:30.889Z,32.78
2022-12-03T19:07:00.555Z,32.80
2022-12-03T19:09:30.020Z,33.73
2022-12-03T19:11:59.673Z,33.15
2022-12-03T19:14:29.109Z,34.50
2022-12-03T19:16:58.615Z,45.05
2022-12-03T19:19:28.775Z,39.67
2022-12-03T19:21:58.780Z,34.70
2022-12-03T19:24:33.087Z,31.50
2022-12-03T19:27:02.579Z,32.83
2022-12-03T19:29:32.002Z,32.03
2022-12-03T19:32:01.562Z,29.90
2022-12-03T19:34:31.386Z,28.23
2022-12-03T19:37:01.627Z,31.33
2022-12-03T19:39:32.245Z,30.35
2022-12-03T19:42:01.673Z,26.80
2022-12-03T19:44:32.659Z,37.78
2022-12-03T19:47:03.566Z,38.95
2022-12-03T19:49:33.683Z,40.73
2022-12-03T19:52:03.126Z,40.40
2022-12-03T19:54:32.543Z,44.20
2022-12-03T19:57:02.047Z,44.63
2022-12-03T19:59:31.481Z,43.37
2022-12-03T20:02:00.995Z,36.35
2022-12-03T20:04:31.781Z,31.65
2022-12-03T20:07:01.208Z,35.03
2022-12-03T20:09:30.642Z,38.10
2022-12-03T20:12:00.127Z,41.42
2022-12-03T20:14:29.655Z,43.20
2022-12-03T20:16:59.160Z,37.67
2022-12-03T20:19:29.850Z,36.33
2022-12-03T20:22:02.776Z,37.90
2022-12-03T20:27:00.289Z,34.23
2022-12-03T20:29:29.783Z,38.40
2022-12-03T20:32:00.337Z,38.35
2022-12-03T20:34:29.805Z,36.38
2022-12-03T20:36:59.256Z,42.83
2022-12-03T20:39:28.871Z,50.63
2022-12-03T20:41:58.304Z,52.38
2022-12-03T20:44:27.801Z,46.00
2022-12-03T20:46:57.309Z,38.40
2022-12-03T20:49:26.732Z,39.50
2022-12-03T20:51:58.689Z,36.90
2022-12-03T20:54:27.378Z,35.80
2022-12-03T20:56:56.976Z,39.85
2022-12-03T20:59:26.423Z,39.47
2022-12-03T21:01:56.013Z,37.98
2022-12-03T21:04:25.663Z,34.85
2022-12-03T21:06:55.236Z,35.70
2022-12-03T21:09:26.062Z,34.20
2022-12-03T21:11:55.487Z,29.40
2022-12-03T21:14:24.920Z,33.18
2022-12-03T21:17:11.700Z,32.80
2022-12-03T21:19:27.490Z,33.13
2022-12-03T21:21:56.953Z,36.50
2022-12-03T21:24:26.657Z,37.30
2022-12-03T21:26:56.168Z,37.10
2022-12-03T21:29:25.835Z,33.47
2022-12-03T21:31:55.330Z,33.30
2022-12-03T21:34:24.757Z,32.20
2022-12-03T21:36:54.379Z,35.30
2022-12-03T21:39:23.811Z,33.33
2022-12-03T21:42:35.390Z,35.80
2022-12-03T21:44:24.705Z,36.08
2022-12-03T21:47:11.971Z,37.73
2022-12-03T21:49:25.298Z,36.03
2022-12-03T21:51:54.726Z,41.65
2022-12-03T21:54:24.176Z,43.30
2022-12-03T21:56:54.747Z,43.30
2022-12-03T21:59:24.240Z,46.73
2022-12-03T22:01:53.753Z,49.03
2022-12-03T22:04:23.214Z,47.95
2022-12-03T22:06:52.642Z,49.35
2022-12-03T22:09:26.718Z,58.08
2022-12-03T22:11:59.113Z,55.03
2022-12-03T22:14:29.985Z,44.03
2022-12-03T22:16:59.505Z,41.40
2022-12-03T22:19:29.085Z,42.03
2022-12-03T22:21:58.517Z,41.53
2022-12-03T22:24:28.040Z,42.85
2022-12-03T22:26:57.470Z,48.73
2022-12-03T22:29:26.894Z,57.98
2022-12-03T22:31:56.339Z,57.33
2022-12-03T22:34:25.845Z,50.73
2022-12-03T22:36:55.643Z,54.83
2022-12-03T22:39:26.812Z,77.35
2022-12-03T22:41:56.262Z,76.62
2022-12-03T22:44:25.702Z,66.87
2022-12-03T22:46:55.318Z,73.83
2022-12-03T22:49:24.831Z,64.75
2022-12-03T22:51:54.831Z,62.62
2022-12-03T22:54:24.491Z,62.05
2022-12-03T22:56:53.957Z,58.20
2022-12-03T22:59:23.462Z,62.95
2022-12-03T23:01:52.904Z,67.05
2022-12-03T23:04:22.380Z,58.95
2022-12-03T23:06:51.864Z,54.95
2022-12-03T23:09:22.920Z,64.00
2022-12-03T23:11:52.353Z,65.28
2022-12-03T23:14:24.776Z,61.05
2022-12-03T23:16:54.277Z,55.00
2022-12-03T23:19:23.791Z,60.60
2022-12-03T23:21:53.241Z,58.52
2022-12-03T23:24:22.682Z,52.30
2022-12-03T23:26:52.102Z,64.72
2022-12-03T23:29:21.739Z,62.67
2022-12-03T23:31:51.178Z,66.07
2022-12-03T23:34:20.801Z,70.85
2022-12-03T23:36:50.469Z,76.07
2022-12-03T23:39:20.343Z,64.03
2022-12-03T23:41:52.807Z,70.57
2022-12-03T23:44:24.092Z,70.55
2022-12-03T23:46:53.590Z,68.72
2022-12-03T23:49:23.091Z,73.90
2022-12-03T23:51:52.590Z,75.57
2022-12-03T23:54:22.184Z,74.20
2022-12-03T23:56:51.624Z,67.00
2022-12-03T23:59:21.045Z,58.70
